sensor_id;sensor_type;location;lat;lon;timestamp;P1;durP1;ratioP1;P2;durP2;ratioP2
72198;SDS011;60103;51.014;16.992;2023-07-29T00:00:01;7.20;;;2.30;;
72198;SDS011;60103;51.014;16.992;2023-07-29T00:02:59;6.50;;;2.70;;
72198;SDS011;60103;51.014;16.992;2023-07-29T00:05:28;7.30;;;2.70;;
72198;SDS011;60103;51.014;16.992;2023-07-29T00:07:57;10.40;;;2.60;;
72198;SDS011;60103;51.014;16.992;2023-07-29T00:10:26;7.40;;;2.90;;
72198;SDS011;60103;51.014;16.992;2023-07-29T00:12:55;6.70;;;2.80;;
72198;SDS011;60103;51.014;16.992;2023-07-29T00:15:24;8.10;;;2.90;;
72198;SDS011;60103;51.014;16.992;2023-07-29T00:17:53;7.40;;;2.90;;
72198;SDS011;60103;51.014;16.992;2023-07-29T00:20:22;7.40;;;2.60;;
72198;SDS011;60103;51.014;16.992;2023-07-29T00:22:51;8.70;;;3.00;;
72198;SDS011;60103;51.014;16.992;2023-07-29T00:25:22;6.90;;;2.40;;
72198;SDS011;60103;51.014;16.992;2023-07-29T00:27:51;8.70;;;2.70;;
72198;SDS011;60103;51.014;16.992;2023-07-29T00:30:22;8.90;;;2.90;;
72198;SDS011;60103;51.014;16.992;2023-07-29T00:32:50;11.40;;;3.00;;
72198;SDS011;60103;51.014;16.992;2023-07-29T00:35:19;8.40;;;3.10;;
72198;SDS011;60103;51.014;16.992;2023-07-29T00:37:49;8.30;;;2.90;;
72198;SDS011;60103;51.014;16.992;2023-07-29T00:40:21;8.20;;;2.80;;
72198;SDS011;60103;51.014;16.992;2023-07-29T00:42:50;6.80;;;2.80;;
72198;SDS011;60103;51.014;16.992;2023-07-29T00:45:19;8.30;;;2.90;;
72198;SDS011;60103;51.014;16.992;2023-07-29T00:47:48;8.00;;;3.10;;
72198;SDS011;60103;51.014;16.992;2023-07-29T00:50:17;8.60;;;3.00;;
72198;SDS011;60103;51.014;16.992;2023-07-29T00:52:46;7.20;;;3.10;;
72198;SDS011;60103;51.014;16.992;2023-07-29T00:55:16;7.70;;;2.90;;
72198;SDS011;60103;51.014;16.992;2023-07-29T00:57:44;7.90;;;3.10;;
72198;SDS011;60103;51.014;16.992;2023-07-29T01:00:16;7.70;;;3.20;;
72198;SDS011;60103;51.014;16.992;2023-07-29T01:02:45;8.30;;;3.40;;
72198;SDS011;60103;51.014;16.992;2023-07-29T01:05:14;7.50;;;2.80;;
72198;SDS011;60103;51.014;16.992;2023-07-29T01:07:51;7.90;;;2.90;;
72198;SDS011;60103;51.014;16.992;2023-07-29T01:15:55;8.00;;;3.20;;
72198;SDS011;60103;51.014;16.992;2023-07-29T01:18:31;8.40;;;3.10;;
72198;SDS011;60103;51.014;16.992;2023-07-29T01:21:04;10.90;;;3.40;;
72198;SDS011;60103;51.014;16.992;2023-07-29T01:23:33;7.10;;;3.00;;
72198;SDS011;60103;51.014;16.992;2023-07-29T01:26:03;9.30;;;3.20;;
72198;SDS011;60103;51.014;16.992;2023-07-29T01:28:32;8.90;;;3.40;;
72198;SDS011;60103;51.014;16.992;2023-07-29T01:33:48;8.70;;;2.90;;
72198;SDS011;60103;51.014;16.992;2023-07-29T01:36:26;7.10;;;2.60;;
72198;SDS011;60103;51.014;16.992;2023-07-29T01:38:56;8.30;;;3.10;;
72198;SDS011;60103;51.014;16.992;2023-07-29T01:41:26;7.70;;;2.90;;
72198;SDS011;60103;51.014;16.992;2023-07-29T01:43:56;7.60;;;3.00;;
72198;SDS011;60103;51.014;16.992;2023-07-29T01:46:25;8.10;;;2.80;;
72198;SDS011;60103;51.014;16.992;2023-07-29T01:48:54;7.40;;;3.00;;
72198;SDS011;60103;51.014;16.992;2023-07-29T01:51:23;7.40;;;2.60;;
72198;SDS011;60103;51.014;16.992;2023-07-29T01:53:52;8.80;;;2.50;;
72198;SDS011;60103;51.014;16.992;2023-07-29T01:56:20;7.40;;;3.00;;
72198;SDS011;60103;51.014;16.992;2023-07-29T01:58:55;8.00;;;2.50;;
72198;SDS011;60103;51.014;16.992;2023-07-29T02:01:24;12.00;;;2.60;;
72198;SDS011;60103;51.014;16.992;2023-07-29T02:03:53;6.50;;;2.50;;
72198;SDS011;60103;51.014;16.992;2023-07-29T02:06:24;9.20;;;2.50;;
72198;SDS011;60103;51.014;16.992;2023-07-29T02:08:54;6.40;;;2.70;;
72198;SDS011;60103;51.014;16.992;2023-07-29T02:11:23;7.40;;;2.80;;
72198;SDS011;60103;51.014;16.992;2023-07-29T02:13:56;6.80;;;2.60;;
72198;SDS011;60103;51.014;16.992;2023-07-29T02:16:25;6.90;;;2.30;;
72198;SDS011;60103;51.014;16.992;2023-07-29T02:18:54;7.50;;;2.40;;
72198;SDS011;60103;51.014;16.992;2023-07-29T02:21:24;8.10;;;3.10;;
72198;SDS011;60103;51.014;16.992;2023-07-29T02:23:52;8.10;;;3.00;;
72198;SDS011;60103;51.014;16.992;2023-07-29T02:26:22;6.70;;;2.70;;
72198;SDS011;60103;51.014;16.992;2023-07-29T02:28:51;7.40;;;2.40;;
72198;SDS011;60103;51.014;16.992;2023-07-29T02:33:53;8.80;;;2.70;;
72198;SDS011;60103;51.014;16.992;2023-07-29T02:36:23;9.30;;;2.90;;
72198;SDS011;60103;51.014;16.992;2023-07-29T02:38:52;8.90;;;3.00;;
72198;SDS011;60103;51.014;16.992;2023-07-29T02:41:21;8.00;;;3.10;;
72198;SDS011;60103;51.014;16.992;2023-07-29T02:43:50;7.20;;;2.90;;
72198;SDS011;60103;51.014;16.992;2023-07-29T02:46:19;7.60;;;3.00;;
72198;SDS011;60103;51.014;16.992;2023-07-29T02:48:49;7.00;;;2.70;;
72198;SDS011;60103;51.014;16.992;2023-07-29T02:51:18;7.10;;;3.20;;
72198;SDS011;60103;51.014;16.992;2023-07-29T02:53:46;8.20;;;3.60;;
72198;SDS011;60103;51.014;16.992;2023-07-29T02:56:15;10.50;;;3.80;;
72198;SDS011;60103;51.014;16.992;2023-07-29T02:58:44;9.00;;;3.30;;
72198;SDS011;60103;51.014;16.992;2023-07-29T03:01:13;7.60;;;3.60;;
72198;SDS011;60103;51.014;16.992;2023-07-29T03:03:42;7.70;;;3.40;;
72198;SDS011;60103;51.014;16.992;2023-07-29T03:06:13;8.50;;;3.10;;
72198;SDS011;60103;51.014;16.992;2023-07-29T03:08:43;7.50;;;3.20;;
72198;SDS011;60103;51.014;16.992;2023-07-29T03:11:13;10.10;;;3.10;;
72198;SDS011;60103;51.014;16.992;2023-07-29T03:13:43;9.20;;;3.60;;
72198;SDS011;60103;51.014;16.992;2023-07-29T03:16:13;8.10;;;3.50;;
72198;SDS011;60103;51.014;16.992;2023-07-29T03:18:47;8.20;;;2.90;;
72198;SDS011;60103;51.014;16.992;2023-07-29T03:21:16;10.50;;;3.30;;
72198;SDS011;60103;51.014;16.992;2023-07-29T03:23:45;8.30;;;3.60;;
72198;SDS011;60103;51.014;16.992;2023-07-29T03:26:14;9.80;;;3.60;;
72198;SDS011;60103;51.014;16.992;2023-07-29T03:28:43;8.00;;;3.70;;
72198;SDS011;60103;51.014;16.992;2023-07-29T03:31:12;7.80;;;3.10;;
72198;SDS011;60103;51.014;16.992;2023-07-29T03:33:42;9.60;;;3.20;;
72198;SDS011;60103;51.014;16.992;2023-07-29T03:36:11;9.70;;;3.40;;
72198;SDS011;60103;51.014;16.992;2023-07-29T03:38:40;10.60;;;3.50;;
72198;SDS011;60103;51.014;16.992;2023-07-29T03:41:09;10.90;;;3.10;;
72198;SDS011;60103;51.014;16.992;2023-07-29T03:43:38;8.30;;;3.20;;
72198;SDS011;60103;51.014;16.992;2023-07-29T03:46:07;9.80;;;3.40;;
72198;SDS011;60103;51.014;16.992;2023-07-29T03:48:39;8.20;;;3.10;;
72198;SDS011;60103;51.014;16.992;2023-07-29T03:51:08;9.30;;;3.30;;
72198;SDS011;60103;51.014;16.992;2023-07-29T03:53:37;9.30;;;3.40;;
72198;SDS011;60103;51.014;16.992;2023-07-29T03:56:06;7.70;;;3.70;;
72198;SDS011;60103;51.014;16.992;2023-07-29T03:58:36;9.70;;;3.20;;
72198;SDS011;60103;51.014;16.992;2023-07-29T04:01:05;7.80;;;3.50;;
72198;SDS011;60103;51.014;16.992;2023-07-29T04:03:34;8.70;;;3.80;;
72198;SDS011;60103;51.014;16.992;2023-07-29T04:06:03;8.70;;;3.60;;
72198;SDS011;60103;51.014;16.992;2023-07-29T04:08:32;7.10;;;2.90;;
72198;SDS011;60103;51.014;16.992;2023-07-29T04:11:01;8.00;;;3.70;;
72198;SDS011;60103;51.014;16.992;2023-07-29T04:13:31;8.20;;;3.50;;
72198;SDS011;60103;51.014;16.992;2023-07-29T04:16:00;8.20;;;3.20;;
72198;SDS011;60103;51.014;16.992;2023-07-29T04:18:29;7.90;;;3.00;;
72198;SDS011;60103;51.014;16.992;2023-07-29T04:20:57;7.70;;;3.30;;
72198;SDS011;60103;51.014;16.992;2023-07-29T04:23:26;8.70;;;3.40;;
72198;SDS011;60103;51.014;16.992;2023-07-29T04:25:55;8.00;;;3.00;;
72198;SDS011;60103;51.014;16.992;2023-07-29T04:28:24;7.10;;;2.90;;
72198;SDS011;60103;51.014;16.992;2023-07-29T04:30:53;8.30;;;3.20;;
72198;SDS011;60103;51.014;16.992;2023-07-29T04:33:23;8.70;;;3.40;;
72198;SDS011;60103;51.014;16.992;2023-07-29T04:35:52;8.50;;;3.40;;
72198;SDS011;60103;51.014;16.992;2023-07-29T04:38:21;8.20;;;3.30;;
72198;SDS011;60103;51.014;16.992;2023-07-29T04:40:50;7.70;;;3.50;;
72198;SDS011;60103;51.014;16.992;2023-07-29T04:43:19;8.60;;;2.90;;
72198;SDS011;60103;51.014;16.992;2023-07-29T04:45:48;8.80;;;3.10;;
72198;SDS011;60103;51.014;16.992;2023-07-29T04:48:17;8.20;;;3.20;;
72198;SDS011;60103;51.014;16.992;2023-07-29T04:50:45;8.40;;;3.00;;
72198;SDS011;60103;51.014;16.992;2023-07-29T04:53:14;7.80;;;3.10;;
72198;SDS011;60103;51.014;16.992;2023-07-29T04:55:43;7.50;;;2.70;;
72198;SDS011;60103;51.014;16.992;2023-07-29T04:58:12;7.20;;;2.90;;
72198;SDS011;60103;51.014;16.992;2023-07-29T05:00:41;7.90;;;2.80;;
72198;SDS011;60103;51.014;16.992;2023-07-29T05:03:10;8.30;;;2.70;;
72198;SDS011;60103;51.014;16.992;2023-07-29T05:05:39;7.70;;;2.90;;
72198;SDS011;60103;51.014;16.992;2023-07-29T05:08:08;8.30;;;2.60;;
72198;SDS011;60103;51.014;16.992;2023-07-29T05:10:36;9.10;;;3.10;;
72198;SDS011;60103;51.014;16.992;2023-07-29T05:13:05;9.90;;;3.10;;
72198;SDS011;60103;51.014;16.992;2023-07-29T05:15:35;9.10;;;2.70;;
72198;SDS011;60103;51.014;16.992;2023-07-29T05:18:05;7.40;;;2.60;;
72198;SDS011;60103;51.014;16.992;2023-07-29T05:20:37;6.20;;;2.50;;
72198;SDS011;60103;51.014;16.992;2023-07-29T05:23:05;8.30;;;3.10;;
72198;SDS011;60103;51.014;16.992;2023-07-29T05:25:36;8.20;;;2.60;;
72198;SDS011;60103;51.014;16.992;2023-07-29T05:28:05;6.70;;;2.70;;
72198;SDS011;60103;51.014;16.992;2023-07-29T05:30:34;6.90;;;2.10;;
72198;SDS011;60103;51.014;16.992;2023-07-29T05:33:06;5.90;;;2.00;;
72198;SDS011;60103;51.014;16.992;2023-07-29T05:35:39;6.70;;;2.40;;
72198;SDS011;60103;51.014;16.992;2023-07-29T05:38:08;6.30;;;1.90;;
72198;SDS011;60103;51.014;16.992;2023-07-29T05:40:38;7.40;;;2.00;;
72198;SDS011;60103;51.014;16.992;2023-07-29T05:43:06;6.20;;;1.80;;
72198;SDS011;60103;51.014;16.992;2023-07-29T05:45:35;7.30;;;1.80;;
72198;SDS011;60103;51.014;16.992;2023-07-29T05:48:04;8.20;;;1.80;;
72198;SDS011;60103;51.014;16.992;2023-07-29T05:50:33;6.00;;;1.70;;
72198;SDS011;60103;51.014;16.992;2023-07-29T05:53:02;6.30;;;2.00;;
72198;SDS011;60103;51.014;16.992;2023-07-29T05:55:32;7.10;;;2.00;;
72198;SDS011;60103;51.014;16.992;2023-07-29T05:58:01;6.60;;;1.70;;
72198;SDS011;60103;51.014;16.992;2023-07-29T06:00:30;6.40;;;1.60;;
72198;SDS011;60103;51.014;16.992;2023-07-29T06:03:00;5.80;;;1.70;;
72198;SDS011;60103;51.014;16.992;2023-07-29T06:05:29;6.00;;;1.90;;
72198;SDS011;60103;51.014;16.992;2023-07-29T06:07:58;6.00;;;1.90;;
72198;SDS011;60103;51.014;16.992;2023-07-29T06:10:27;8.70;;;2.20;;
72198;SDS011;60103;51.014;16.992;2023-07-29T06:12:56;5.30;;;1.70;;
72198;SDS011;60103;51.014;16.992;2023-07-29T06:15:28;6.80;;;1.80;;
72198;SDS011;60103;51.014;16.992;2023-07-29T06:17:57;5.30;;;1.50;;
72198;SDS011;60103;51.014;16.992;2023-07-29T06:20:25;5.30;;;1.60;;
72198;SDS011;60103;51.014;16.992;2023-07-29T06:22:55;5.70;;;1.60;;
72198;SDS011;60103;51.014;16.992;2023-07-29T06:25:24;6.50;;;2.00;;
72198;SDS011;60103;51.014;16.992;2023-07-29T06:27:53;8.20;;;1.90;;
72198;SDS011;60103;51.014;16.992;2023-07-29T06:30:22;7.10;;;1.70;;
72198;SDS011;60103;51.014;16.992;2023-07-29T06:32:51;5.90;;;1.30;;
72198;SDS011;60103;51.014;16.992;2023-07-29T06:35:20;8.20;;;2.50;;
72198;SDS011;60103;51.014;16.992;2023-07-29T06:37:49;6.20;;;1.70;;
72198;SDS011;60103;51.014;16.992;2023-07-29T06:40:18;5.70;;;1.60;;
72198;SDS011;60103;51.014;16.992;2023-07-29T06:42:47;6.30;;;1.60;;
72198;SDS011;60103;51.014;16.992;2023-07-29T06:45:16;4.20;;;1.30;;
72198;SDS011;60103;51.014;16.992;2023-07-29T06:47:45;8.20;;;1.60;;
72198;SDS011;60103;51.014;16.992;2023-07-29T06:50:14;5.40;;;1.50;;
72198;SDS011;60103;51.014;16.992;2023-07-29T06:52:43;7.30;;;1.40;;
72198;SDS011;60103;51.014;16.992;2023-07-29T06:55:12;5.10;;;1.70;;
72198;SDS011;60103;51.014;16.992;2023-07-29T06:57:42;4.70;;;1.40;;
72198;SDS011;60103;51.014;16.992;2023-07-29T07:00:12;4.00;;;1.30;;
72198;SDS011;60103;51.014;16.992;2023-07-29T07:02:42;5.10;;;1.90;;
72198;SDS011;60103;51.014;16.992;2023-07-29T07:05:11;5.00;;;1.30;;
72198;SDS011;60103;51.014;16.992;2023-07-29T07:07:40;5.20;;;1.50;;
72198;SDS011;60103;51.014;16.992;2023-07-29T07:10:09;4.20;;;1.30;;
72198;SDS011;60103;51.014;16.992;2023-07-29T07:12:38;4.00;;;1.20;;
72198;SDS011;60103;51.014;16.992;2023-07-29T07:15:07;4.50;;;1.40;;
72198;SDS011;60103;51.014;16.992;2023-07-29T07:17:36;4.80;;;1.50;;
72198;SDS011;60103;51.014;16.992;2023-07-29T07:20:06;4.40;;;1.40;;
72198;SDS011;60103;51.014;16.992;2023-07-29T07:22:36;4.90;;;1.30;;
72198;SDS011;60103;51.014;16.992;2023-07-29T07:25:05;4.70;;;1.30;;
72198;SDS011;60103;51.014;16.992;2023-07-29T07:27:36;4.70;;;1.30;;
72198;SDS011;60103;51.014;16.992;2023-07-29T07:30:05;6.10;;;1.70;;
72198;SDS011;60103;51.014;16.992;2023-07-29T07:32:37;5.20;;;1.90;;
72198;SDS011;60103;51.014;16.992;2023-07-29T07:35:07;3.80;;;1.30;;
72198;SDS011;60103;51.014;16.992;2023-07-29T07:37:36;4.20;;;1.10;;
72198;SDS011;60103;51.014;16.992;2023-07-29T07:40:06;5.70;;;1.40;;
72198;SDS011;60103;51.014;16.992;2023-07-29T07:42:36;4.70;;;1.50;;
72198;SDS011;60103;51.014;16.992;2023-07-29T07:45:05;4.60;;;1.50;;
72198;SDS011;60103;51.014;16.992;2023-07-29T07:47:34;4.20;;;1.30;;
72198;SDS011;60103;51.014;16.992;2023-07-29T07:50:04;4.50;;;1.40;;
72198;SDS011;60103;51.014;16.992;2023-07-29T07:52:33;3.70;;;1.10;;
72198;SDS011;60103;51.014;16.992;2023-07-29T07:55:03;4.80;;;1.30;;
72198;SDS011;60103;51.014;16.992;2023-07-29T07:57:32;5.00;;;1.40;;
72198;SDS011;60103;51.014;16.992;2023-07-29T08:00:01;5.00;;;1.20;;
72198;SDS011;60103;51.014;16.992;2023-07-29T08:02:39;4.60;;;1.30;;
72198;SDS011;60103;51.014;16.992;2023-07-29T08:05:09;4.20;;;1.20;;
72198;SDS011;60103;51.014;16.992;2023-07-29T08:07:38;6.60;;;1.40;;
72198;SDS011;60103;51.014;16.992;2023-07-29T08:10:07;5.60;;;1.40;;
72198;SDS011;60103;51.014;16.992;2023-07-29T08:12:37;4.50;;;1.40;;
72198;SDS011;60103;51.014;16.992;2023-07-29T08:15:06;5.40;;;1.70;;
72198;SDS011;60103;51.014;16.992;2023-07-29T08:17:35;4.10;;;1.30;;
72198;SDS011;60103;51.014;16.992;2023-07-29T08:20:04;4.50;;;1.40;;
72198;SDS011;60103;51.014;16.992;2023-07-29T08:22:33;4.40;;;1.30;;
72198;SDS011;60103;51.014;16.992;2023-07-29T08:25:03;4.10;;;1.40;;
72198;SDS011;60103;51.014;16.992;2023-07-29T08:27:33;5.50;;;1.10;;
72198;SDS011;60103;51.014;16.992;2023-07-29T08:30:03;3.30;;;1.10;;
72198;SDS011;60103;51.014;16.992;2023-07-29T08:32:34;4.30;;;1.20;;
72198;SDS011;60103;51.014;16.992;2023-07-29T08:35:02;4.10;;;1.20;;
72198;SDS011;60103;51.014;16.992;2023-07-29T08:37:32;4.50;;;1.00;;
72198;SDS011;60103;51.014;16.992;2023-07-29T08:40:02;3.00;;;1.00;;
72198;SDS011;60103;51.014;16.992;2023-07-29T08:42:31;3.40;;;1.10;;
72198;SDS011;60103;51.014;16.992;2023-07-29T08:45:06;4.70;;;1.40;;
72198;SDS011;60103;51.014;16.992;2023-07-29T08:47:37;4.40;;;1.30;;
72198;SDS011;60103;51.014;16.992;2023-07-29T08:50:08;4.80;;;1.50;;
72198;SDS011;60103;51.014;16.992;2023-07-29T08:52:41;4.00;;;1.20;;
72198;SDS011;60103;51.014;16.992;2023-07-29T08:55:11;3.90;;;1.20;;
72198;SDS011;60103;51.014;16.992;2023-07-29T08:57:40;5.70;;;1.30;;
72198;SDS011;60103;51.014;16.992;2023-07-29T09:00:10;4.60;;;1.20;;
72198;SDS011;60103;51.014;16.992;2023-07-29T09:02:39;4.10;;;1.10;;
72198;SDS011;60103;51.014;16.992;2023-07-29T09:05:08;3.00;;;1.10;;
72198;SDS011;60103;51.014;16.992;2023-07-29T09:07:37;4.20;;;1.20;;
72198;SDS011;60103;51.014;16.992;2023-07-29T09:10:08;4.40;;;1.10;;
72198;SDS011;60103;51.014;16.992;2023-07-29T09:12:39;3.80;;;1.30;;
72198;SDS011;60103;51.014;16.992;2023-07-29T09:15:08;4.10;;;1.30;;
72198;SDS011;60103;51.014;16.992;2023-07-29T09:17:37;3.90;;;1.00;;
72198;SDS011;60103;51.014;16.992;2023-07-29T09:20:06;4.50;;;1.20;;
72198;SDS011;60103;51.014;16.992;2023-07-29T09:22:38;4.40;;;1.30;;
72198;SDS011;60103;51.014;16.992;2023-07-29T09:25:07;4.50;;;1.60;;
72198;SDS011;60103;51.014;16.992;2023-07-29T09:27:36;4.20;;;1.20;;
72198;SDS011;60103;51.014;16.992;2023-07-29T09:30:15;4.90;;;1.40;;
72198;SDS011;60103;51.014;16.992;2023-07-29T09:32:44;3.90;;;1.20;;
72198;SDS011;60103;51.014;16.992;2023-07-29T09:35:13;3.90;;;1.20;;
72198;SDS011;60103;51.014;16.992;2023-07-29T09:37:43;4.40;;;1.50;;
72198;SDS011;60103;51.014;16.992;2023-07-29T09:40:15;4.30;;;1.40;;
72198;SDS011;60103;51.014;16.992;2023-07-29T09:42:48;5.70;;;1.40;;
72198;SDS011;60103;51.014;16.992;2023-07-29T09:45:23;5.20;;;1.40;;
72198;SDS011;60103;51.014;16.992;2023-07-29T09:47:54;4.30;;;1.20;;
72198;SDS011;60103;51.014;16.992;2023-07-29T09:50:23;4.20;;;1.40;;
72198;SDS011;60103;51.014;16.992;2023-07-29T09:52:53;5.60;;;1.60;;
72198;SDS011;60103;51.014;16.992;2023-07-29T09:55:23;4.40;;;1.50;;
72198;SDS011;60103;51.014;16.992;2023-07-29T09:57:53;5.00;;;1.70;;
72198;SDS011;60103;51.014;16.992;2023-07-29T10:00:24;5.40;;;2.00;;
72198;SDS011;60103;51.014;16.992;2023-07-29T10:02:53;5.30;;;2.10;;
72198;SDS011;60103;51.014;16.992;2023-07-29T10:05:22;5.90;;;2.10;;
72198;SDS011;60103;51.014;16.992;2023-07-29T10:07:54;6.20;;;2.20;;
72198;SDS011;60103;51.014;16.992;2023-07-29T10:10:23;6.30;;;2.10;;
72198;SDS011;60103;51.014;16.992;2023-07-29T10:12:52;6.20;;;2.30;;
72198;SDS011;60103;51.014;16.992;2023-07-29T10:15:22;5.70;;;2.10;;
72198;SDS011;60103;51.014;16.992;2023-07-29T10:17:50;7.40;;;2.30;;
72198;SDS011;60103;51.014;16.992;2023-07-29T10:20:20;6.20;;;2.60;;
72198;SDS011;60103;51.014;16.992;2023-07-29T10:22:49;5.90;;;2.20;;
72198;SDS011;60103;51.014;16.992;2023-07-29T10:25:21;8.40;;;2.70;;
72198;SDS011;60103;51.014;16.992;2023-07-29T10:30:26;5.50;;;2.40;;
72198;SDS011;60103;51.014;16.992;2023-07-29T10:32:58;5.80;;;2.30;;
72198;SDS011;60103;51.014;16.992;2023-07-29T10:35:30;6.80;;;2.20;;
72198;SDS011;60103;51.014;16.992;2023-07-29T10:38:01;6.20;;;2.30;;
72198;SDS011;60103;51.014;16.992;2023-07-29T10:40:43;6.00;;;2.20;;
72198;SDS011;60103;51.014;16.992;2023-07-29T10:43:18;8.50;;;2.20;;
72198;SDS011;60103;51.014;16.992;2023-07-29T10:45:48;6.40;;;2.10;;
72198;SDS011;60103;51.014;16.992;2023-07-29T10:51:24;5.80;;;2.50;;
72198;SDS011;60103;51.014;16.992;2023-07-29T10:54:01;6.10;;;2.50;;
72198;SDS011;60103;51.014;16.992;2023-07-29T10:56:35;6.10;;;2.40;;
72198;SDS011;60103;51.014;16.992;2023-07-29T11:01:41;7.00;;;2.30;;
72198;SDS011;60103;51.014;16.992;2023-07-29T11:12:51;5.70;;;2.20;;
72198;SDS011;60103;51.014;16.992;2023-07-29T11:15:17;5.10;;;2.00;;
72198;SDS011;60103;51.014;16.992;2023-07-29T11:18:00;6.00;;;1.80;;
72198;SDS011;60103;51.014;16.992;2023-07-29T11:20:30;5.40;;;1.70;;
72198;SDS011;60103;51.014;16.992;2023-07-29T11:23:01;5.40;;;1.70;;
72198;SDS011;60103;51.014;16.992;2023-07-29T11:25:31;5.80;;;2.10;;
72198;SDS011;60103;51.014;16.992;2023-07-29T11:28:02;5.00;;;1.80;;
72198;SDS011;60103;51.014;16.992;2023-07-29T11:30:34;5.40;;;2.00;;
72198;SDS011;60103;51.014;16.992;2023-07-29T11:33:03;7.10;;;2.30;;
72198;SDS011;60103;51.014;16.992;2023-07-29T11:35:32;6.40;;;1.60;;
72198;SDS011;60103;51.014;16.992;2023-07-29T11:38:01;5.80;;;1.70;;
72198;SDS011;60103;51.014;16.992;2023-07-29T11:40:30;3.80;;;1.40;;
72198;SDS011;60103;51.014;16.992;2023-07-29T11:42:59;5.80;;;1.90;;
72198;SDS011;60103;51.014;16.992;2023-07-29T11:45:28;5.20;;;1.80;;
72198;SDS011;60103;51.014;16.992;2023-07-29T11:48:17;4.40;;;1.30;;
72198;SDS011;60103;51.014;16.992;2023-07-29T11:50:47;4.30;;;1.30;;
72198;SDS011;60103;51.014;16.992;2023-07-29T11:53:16;4.40;;;1.10;;
72198;SDS011;60103;51.014;16.992;2023-07-29T11:55:49;5.10;;;1.60;;
72198;SDS011;60103;51.014;16.992;2023-07-29T11:58:20;4.70;;;1.30;;
72198;SDS011;60103;51.014;16.992;2023-07-29T12:00:49;4.20;;;1.30;;
72198;SDS011;60103;51.014;16.992;2023-07-29T12:03:19;4.60;;;1.50;;
72198;SDS011;60103;51.014;16.992;2023-07-29T12:05:49;4.30;;;1.10;;
72198;SDS011;60103;51.014;16.992;2023-07-29T12:08:18;3.70;;;1.20;;
72198;SDS011;60103;51.014;16.992;2023-07-29T12:10:47;4.10;;;1.20;;
72198;SDS011;60103;51.014;16.992;2023-07-29T12:13:16;3.90;;;1.10;;
72198;SDS011;60103;51.014;16.992;2023-07-29T12:15:45;3.10;;;1.00;;
72198;SDS011;60103;51.014;16.992;2023-07-29T12:18:14;3.40;;;0.90;;
72198;SDS011;60103;51.014;16.992;2023-07-29T12:20:43;3.90;;;1.00;;
72198;SDS011;60103;51.014;16.992;2023-07-29T12:23:12;4.30;;;1.20;;
72198;SDS011;60103;51.014;16.992;2023-07-29T12:25:41;4.20;;;1.10;;
72198;SDS011;60103;51.014;16.992;2023-07-29T12:28:10;4.70;;;1.00;;
72198;SDS011;60103;51.014;16.992;2023-07-29T12:30:42;4.10;;;1.00;;
72198;SDS011;60103;51.014;16.992;2023-07-29T12:33:11;4.60;;;1.20;;
72198;SDS011;60103;51.014;16.992;2023-07-29T12:35:40;3.50;;;1.30;;
72198;SDS011;60103;51.014;16.992;2023-07-29T12:38:09;3.80;;;1.10;;
72198;SDS011;60103;51.014;16.992;2023-07-29T12:40:38;3.80;;;1.00;;
72198;SDS011;60103;51.014;16.992;2023-07-29T12:43:08;4.40;;;1.20;;
72198;SDS011;60103;51.014;16.992;2023-07-29T12:45:37;3.80;;;1.30;;
72198;SDS011;60103;51.014;16.992;2023-07-29T12:48:08;3.60;;;1.00;;
72198;SDS011;60103;51.014;16.992;2023-07-29T12:50:38;3.50;;;0.90;;
72198;SDS011;60103;51.014;16.992;2023-07-29T12:53:08;4.00;;;1.30;;
72198;SDS011;60103;51.014;16.992;2023-07-29T12:55:41;3.60;;;1.00;;
72198;SDS011;60103;51.014;16.992;2023-07-29T12:58:10;4.10;;;1.00;;
72198;SDS011;60103;51.014;16.992;2023-07-29T13:00:39;5.00;;;1.30;;
72198;SDS011;60103;51.014;16.992;2023-07-29T13:03:08;4.00;;;1.00;;
72198;SDS011;60103;51.014;16.992;2023-07-29T13:05:37;3.30;;;0.90;;
72198;SDS011;60103;51.014;16.992;2023-07-29T13:08:06;4.70;;;1.00;;
72198;SDS011;60103;51.014;16.992;2023-07-29T13:10:35;5.60;;;1.10;;
72198;SDS011;60103;51.014;16.992;2023-07-29T13:13:04;4.20;;;1.10;;
72198;SDS011;60103;51.014;16.992;2023-07-29T13:15:33;2.50;;;0.70;;
72198;SDS011;60103;51.014;16.992;2023-07-29T13:18:02;2.60;;;0.70;;
72198;SDS011;60103;51.014;16.992;2023-07-29T13:20:31;4.10;;;0.80;;
72198;SDS011;60103;51.014;16.992;2023-07-29T13:23:02;2.60;;;0.80;;
72198;SDS011;60103;51.014;16.992;2023-07-29T13:25:31;3.10;;;0.90;;
72198;SDS011;60103;51.014;16.992;2023-07-29T13:28:00;3.00;;;0.90;;
72198;SDS011;60103;51.014;16.992;2023-07-29T13:30:29;3.00;;;0.90;;
72198;SDS011;60103;51.014;16.992;2023-07-29T13:32:58;4.40;;;1.00;;
72198;SDS011;60103;51.014;16.992;2023-07-29T13:35:28;3.60;;;0.90;;
72198;SDS011;60103;51.014;16.992;2023-07-29T13:37:58;4.70;;;1.00;;
72198;SDS011;60103;51.014;16.992;2023-07-29T13:40:27;4.20;;;1.00;;
72198;SDS011;60103;51.014;16.992;2023-07-29T13:42:56;4.50;;;1.30;;
72198;SDS011;60103;51.014;16.992;2023-07-29T13:45:25;3.20;;;1.00;;
72198;SDS011;60103;51.014;16.992;2023-07-29T13:47:53;4.10;;;1.00;;
72198;SDS011;60103;51.014;16.992;2023-07-29T13:50:22;3.50;;;0.90;;
72198;SDS011;60103;51.014;16.992;2023-07-29T13:52:51;3.70;;;1.00;;
72198;SDS011;60103;51.014;16.992;2023-07-29T13:55:21;4.00;;;1.00;;
72198;SDS011;60103;51.014;16.992;2023-07-29T13:57:50;3.20;;;0.90;;
72198;SDS011;60103;51.014;16.992;2023-07-29T14:00:20;3.10;;;0.80;;
72198;SDS011;60103;51.014;16.992;2023-07-29T14:02:49;3.10;;;0.80;;
72198;SDS011;60103;51.014;16.992;2023-07-29T14:05:18;3.50;;;0.90;;
72198;SDS011;60103;51.014;16.992;2023-07-29T14:07:47;3.50;;;1.10;;
72198;SDS011;60103;51.014;16.992;2023-07-29T14:10:16;4.50;;;0.90;;
72198;SDS011;60103;51.014;16.992;2023-07-29T14:12:45;4.20;;;0.90;;
72198;SDS011;60103;51.014;16.992;2023-07-29T14:15:14;4.60;;;1.20;;
72198;SDS011;60103;51.014;16.992;2023-07-29T14:17:43;6.30;;;1.10;;
72198;SDS011;60103;51.014;16.992;2023-07-29T14:20:12;3.90;;;1.00;;
72198;SDS011;60103;51.014;16.992;2023-07-29T14:22:42;3.50;;;0.80;;
72198;SDS011;60103;51.014;16.992;2023-07-29T14:25:11;4.50;;;1.10;;
72198;SDS011;60103;51.014;16.992;2023-07-29T14:27:40;4.20;;;1.00;;
72198;SDS011;60103;51.014;16.992;2023-07-29T14:30:09;4.20;;;0.90;;
72198;SDS011;60103;51.014;16.992;2023-07-29T14:32:38;3.10;;;1.00;;
72198;SDS011;60103;51.014;16.992;2023-07-29T14:35:07;3.20;;;0.90;;
72198;SDS011;60103;51.014;16.992;2023-07-29T14:37:37;3.60;;;1.00;;
72198;SDS011;60103;51.014;16.992;2023-07-29T14:40:07;3.60;;;1.00;;
72198;SDS011;60103;51.014;16.992;2023-07-29T14:42:36;4.10;;;1.00;;
72198;SDS011;60103;51.014;16.992;2023-07-29T14:45:05;4.50;;;0.90;;
72198;SDS011;60103;51.014;16.992;2023-07-29T14:47:35;3.40;;;0.80;;
72198;SDS011;60103;51.014;16.992;2023-07-29T14:50:04;4.00;;;0.90;;
72198;SDS011;60103;51.014;16.992;2023-07-29T14:52:33;4.10;;;1.10;;
72198;SDS011;60103;51.014;16.992;2023-07-29T14:55:02;3.70;;;1.10;;
72198;SDS011;60103;51.014;16.992;2023-07-29T14:57:31;4.10;;;1.00;;
72198;SDS011;60103;51.014;16.992;2023-07-29T15:00:00;3.30;;;0.90;;
72198;SDS011;60103;51.014;16.992;2023-07-29T15:02:28;3.10;;;1.00;;
72198;SDS011;60103;51.014;16.992;2023-07-29T15:04:58;3.10;;;0.90;;
72198;SDS011;60103;51.014;16.992;2023-07-29T15:07:27;3.30;;;0.80;;
72198;SDS011;60103;51.014;16.992;2023-07-29T15:09:56;3.80;;;1.20;;
72198;SDS011;60103;51.014;16.992;2023-07-29T15:12:25;7.30;;;2.70;;
72198;SDS011;60103;51.014;16.992;2023-07-29T15:14:54;3.70;;;1.10;;